Terminal Aerodrome Forecast
Issued by NWS

Home | Current Version | Previous Version | Text Only | Print | Product List | Glossary On
Versions: 1 2 3 4 5 6 7 8 9 10 11 12 13 14 15 16 17
000
FTUS45 KPIH 221722
TAFSUN
TAF
KSUN 221722Z 2218/2324 VRB05KT 6SM -SN SCT015 OVC025
      TEMPO 2218/2220 2SM -SN BKN015 OVC025
     FM222200 25006KT P6SM SCT015 BKN040
     FM230200 31006KT P6SM FEW015 SCT250
     FM231800 12006KT P6SM SCT130 SCT180=

USA.gov is the U.S. government's official web portal to all federal, state and local government web resources and services.